• Join FlightAware (Why Join?)
  • Login
  • US Flag 
01:15AM EST


 

Airport Tracker/Info


-or-


 

Live Flight TrackerFlight Track Log ✈ N94FG ✈ 26-Mar-2014 ✈ KMTH - KDHN

Flight Track Log - Related Links

Times and Time Zones

All times are in EDT time to prevent confusion due to time zone crossing. See the N94FG flight status page for this flight to view local times or setup timezone preferences in your user account.

Time Position Orientation Groundspeed Altitude Reporting Facility
EDT Latitude Longitude Course Direction KTS MPH feet Rate Location/Type
11:01AM 24.8431 -81.0947 331° Northwest 191 220 7,700  Level Miami Center
11:02AM 24.8864 -81.1214 331° Northwest 160 184 10,100 1,800 Climbing Miami Center
11:03AM 24.9358 -81.1392 342° North 167 192 11,400 1,380 Climbing Miami Center
11:04AM 24.9856 -81.1522 347° North 178 205 12,900 1,440 Climbing Miami Center
11:05AM 25.0394 -81.1681 345° North 184 212 14,300 1,320 Climbing Miami Center
11:06AM 25.0892 -81.1811 347° North 184 212 15,600 1,140 Climbing Miami Center
11:07AM 25.1431 -81.1992 343° North 184 212 16,600 1,140 Climbing Miami Center
11:08AM 25.1947 -81.2147 345° North 189 217 17,900 1,020 Climbing Miami Center
11:09AM 25.2489 -81.2236 352° North 189 217 18,700 840 Climbing Miami Center
11:10AM 25.2986 -81.2344 349° North 189 217 19,600 600 Climbing Miami Center
11:11AM 25.3525 -81.2458 349° North 189 217 20,000 180 Climbing Miami Center
11:12AM 25.4106 -81.2617 346° North 196 226 20,000  Level Miami Center
11:13AM 25.4706 -81.2797 345° North 209 241 20,000  Level Miami Center
11:14AM 25.5306 -81.2981 345° North 219 252 20,000  Level Miami Center
11:15AM 25.5906 -81.3142 346° North 219 252 20,000  Level Miami Center
11:16AM 25.6528 -81.3350 343° North 219 252 20,000  Level Miami Center
11:17AM 25.7106 -81.3508 346° North 219 252 20,000  Level Miami Center
11:18AM 25.7603 -81.3667 344° North 219 252 20,000  Level Miami Center
11:19AM 25.8244 -81.3853 345° North 219 252 20,000  Level Miami Center
11:20AM 25.8844 -81.4036 345° North 219 252 20,000  Level Miami Center
11:21AM 25.9444 -81.4197 346° North 219 252 20,000  Level Miami Center
11:22AM 26.0064 -81.4406 343° North 219 252 20,000  Level Miami Center
11:23AM 26.0667 -81.4567 346° North 219 252 20,000  Level Miami Center
11:24AM 26.1308 -81.4731 347° North 219 252 20,000  Level Miami Center
11:25AM 26.1928 -81.4939 343° North 219 252 20,000  Level Miami Center
11:26AM 26.2528 -81.5103 346° North 219 252 20,000  Level Miami Center
11:27AM 26.3169 -81.5267 347° North 225 259 20,000  Level Miami Center
11:28AM 26.3789 -81.5478 343° North 225 259 20,000  Level Miami Center
11:29AM 26.4411 -81.5639 347° North 225 259 20,000  Level Miami Center
11:30AM 26.5114 -81.5831 346° North 225 259 20,000  Level Miami Center
11:31AM 26.5756 -81.6019 345° North 225 259 20,000  Level Miami Center
11:32AM 26.6375 -81.6206 345° North 225 259 20,000  Level Miami Center
11:33AM 26.6956 -81.6347 348° North 225 259 20,000  Level Miami Center
11:34AM 26.7636 -81.6583 343° North 230 265 20,000  Level Miami Center
11:35AM 26.8258 -81.6747 347° North 230 265 20,000  Level Miami Center
11:36AM 26.8878 -81.6936 345° North 230 265 20,000  Level Miami Center
11:37AM 26.9519 -81.7128 345° North 230 265 20,000  Level Miami Center
11:38AM 27.0142 -81.7222 352° North 230 265 20,000  Level Miami Center
11:39AM 27.0619 -81.7242 358° North 230 265 20,000  Level Miami Center
11:40AM 27.1475 -81.7303 356° North 237 273 20,000  Level Miami Center
11:41AM 27.2142 -81.7331 358° North 230 265 20,000  Level Miami Center
11:42AM 27.2811 -81.7264 North 237 273 20,000  Level Miami Center
11:43AM 27.3414 -81.7336 354° North 231 266 20,000  Level Miami Center
11:44AM 27.4033 -81.7528 345° North 231 266 20,000  Level Miami Center
11:45AM 27.4647 -81.7881 333° Northwest 231 266 20,000  Level Miami Center
11:46AM 27.5244 -81.8117 341° North 231 266 20,000  Level Miami Center
11:47AM 27.5822 -81.8353 340° North 231 266 20,000  Level Miami Center
11:48AM 27.6378 -81.8586 340° North 231 266 20,000  Level Miami Center
11:50AM 27.7603 -81.9100 340° North 236 272 20,000  Level Jacksonville Center
11:51AM 27.8189 -81.9400 336° Northwest 236 272 20,000  Level Jacksonville Center
11:52AM 27.8775 -81.9675 337° Northwest 231 266 20,000  Level Jacksonville Center
11:53AM 27.9361 -81.9953 337° Northwest 231 266 20,000  Level Jacksonville Center
11:54AM 27.9947 -82.0206 339° North 231 266 20,000  Level Jacksonville Center
11:55AM 28.0533 -82.0506 336° Northwest 231 266 20,000  Level Jacksonville Center
11:56AM 28.1056 -82.0878 328° Northwest 231 266 20,000  Level Jacksonville Center
11:57AM 28.1622 -82.1228 331° Northwest 231 266 20,000  Level Jacksonville Center
11:58AM 28.2167 -82.1600 329° Northwest 231 266 20,000  Level Jacksonville Center
11:59AM 28.2711 -82.1950 330° Northwest 231 266 20,000  Level Jacksonville Center
12:00PM 28.3278 -82.2300 331° Northwest 231 266 20,000  Level Jacksonville Center
12:01PM 28.3822 -82.2650 331° Northwest 231 266 20,000  Level Jacksonville Center
12:02PM 28.4367 -82.3000 331° Northwest 231 266 20,000  Level Jacksonville Center
12:03PM 28.4931 -82.3375 330° Northwest 231 266 20,000  Level Jacksonville Center
12:04PM 28.5517 -82.3725 332° Northwest 231 266 20,000  Level Jacksonville Center
12:05PM 28.6081 -82.4103 330° Northwest 231 266 20,000  Level Jacksonville Center
12:06PM 28.6708 -82.4336 342° North 231 266 20,000  Level Jacksonville Center
12:07PM 28.7461 -82.4428 354° North 236 272 20,000  Level Jacksonville Center
12:08PM 28.8150 -82.4494 355° North 241 277 20,000  Level Jacksonville Center
12:09PM 28.8858 -82.4561 355° North 241 277 20,000  Level Jacksonville Center
12:10PM 28.9547 -82.4656 353° North 254 292 20,000  Level Jacksonville Center
12:11PM 29.0258 -82.4722 355° North 254 292 20,000  Level Jacksonville Center
12:12PM 29.0906 -82.4839 351° North 249 287 20,000  Level Jacksonville Center
12:13PM 29.1575 -82.5025 346° North 244 281 20,000  Level Jacksonville Center
12:14PM 29.2075 -82.5475 322° Northwest 221 254 20,000  Level Jacksonville Center
12:15PM 29.2494 -82.6022 311° West 221 254 20,000  Level Jacksonville Center
12:16PM 29.2933 -82.6544 314° West 221 254 20,000  Level Jacksonville Center
12:17PM 29.3372 -82.7044 315° West 226 260 20,000  Level Jacksonville Center
12:18PM 29.3792 -82.7592 311° West 226 260 20,000  Level Jacksonville Center
12:19PM 29.4231 -82.8114 314° West 226 260 20,000  Level Jacksonville Center
12:20PM 29.4669 -82.8686 311° West 231 266 20,000  Level Jacksonville Center
12:21PM 29.5067 -82.9211 311° West 242 278 20,000  Level Jacksonville Center
12:22PM 29.5461 -82.9736 311° West 237 273 20,000  Level Jacksonville Center
12:23PM 29.5858 -83.0264 311° West 231 266 20,000  Level Jacksonville Center
12:24PM 29.6297 -83.0836 311° West 231 266 20,000  Level Jacksonville Center
12:25PM 29.6714 -83.1389 311° West 231 266 20,000  Level Jacksonville Center
12:26PM 29.7108 -83.1961 308° West 231 266 20,000  Level Jacksonville Center
12:27PM 29.7544 -83.2514 312° West 226 260 20,000  Level Jacksonville Center
12:28PM 29.7939 -83.3067 309° West 226 260 20,000  Level Jacksonville Center
12:29PM 29.8336 -83.3619 310° West 226 260 20,000  Level Jacksonville Center
12:30PM 29.8731 -83.4172 309° West 226 260 20,000  Level Jacksonville Center
12:31PM 29.9122 -83.4725 309° West 226 260 20,000  Level Jacksonville Center
12:32PM 29.9539 -83.5278 311° West 226 260 20,000  Level Jacksonville Center
12:33PM 29.9953 -83.5833 311° West 226 260 20,000  Level Jacksonville Center
12:34PM 30.0367 -83.6411 310° West 226 260 20,000  Level Jacksonville Center
12:35PM 30.0739 -83.6967 308° West 226 260 20,000  Level Jacksonville Center
12:36PM 30.1175 -83.7522 312° West 226 260 20,000  Level Jacksonville Center
12:38PM 30.1981 -83.8636 310° West 226 260 20,000  Level Jacksonville Center
12:39PM 30.2414 -83.9217 311° West 226 260 20,000  Level Jacksonville Center
12:40PM 30.2806 -83.9797 308° West 226 260 20,000  Level Jacksonville Center
12:41PM 30.3219 -84.0381 309° West 226 260 20,000  Level Jacksonville Center
12:42PM 30.3611 -84.0939 309° West 226 260 20,000  Level Jacksonville Center
12:43PM 30.4044 -84.1497 312° West 226 260 20,000  Level Jacksonville Center
12:44PM 30.4414 -84.2058 307° West 226 260 20,000  Level Jacksonville Center
12:45PM 30.4825 -84.2642 309° West 226 260 20,000  Level Jacksonville Center
12:46PM 30.5217 -84.3178 310° West 232 267 20,000 -240 Level Jacksonville Center
12:47PM 30.5647 -84.3739 312° West 226 260 19,600 -360 Descending Jacksonville Center
12:48PM 30.6100 -84.4350 311° West 233 268 19,300 -300 Descending Jacksonville Center
12:49PM 30.6531 -84.4983 308° West 233 268 19,100 -540 Descending Jacksonville Center
12:50PM 30.6942 -84.5547 310° West 238 274 18,300 -780 Descending Jacksonville Center
12:51PM 30.7372 -84.6183 308° West 243 280 17,600 -1,020 Descending Jacksonville Center
12:52PM 30.7842 -84.6869 309° West 256 295 16,300 -1,440 Descending Jacksonville Center
12:53PM 30.8150 -84.7236 314° West 266 306 15,500 -1,320 Descending Jacksonville Center
12:53PM 30.8314 -84.7481 308° West 256 295 15,000 -1,380 Descending Jacksonville Center
12:54PM 30.8683 -84.7950 313° West 256 295 14,000 -1,140 Descending Jacksonville Center
12:54PM 30.8744 -84.8022 315° West 256 295 13,900 -1,260 Descending Jacksonville Center
12:55PM 30.9153 -84.8661 307° West 250 288 12,600 -1,320 Descending Jacksonville Center
12:55PM 30.9172 -84.8733 287° West 251 289 12,600 -1,320 Level Jacksonville Center
12:56PM 30.9558 -84.9275 310° West 248 285 11,300 -1,320 Descending Jacksonville Center
12:56PM 30.9600 -84.9397 292° West 251 289 11,300 -540 Level Jacksonville Center
12:57PM 30.9986 -84.9939 310° West 239 275 10,800 -420 Descending Jacksonville Center
12:57PM 31.0008 -84.9986 299° West 246 283 10,900 -720 Climbing Jacksonville Center
12:58PM 31.0311 -85.0553 302° West 228 262 10,100 -900 Descending Jacksonville Center
12:58PM 31.0353 -85.0600 316° Northwest 240 276 10,000 -1,320 Descending Jacksonville Center
12:59PM 31.0717 -85.1217 305° West 241 277 8,800 -1,200 Descending Jacksonville Center
12:59PM 31.0736 -85.1289 287° West 240 276 8,800 -1,320 Level Jacksonville Center
01:00PM 31.1144 -85.1906 308° West 253 291 7,500 -1,320 Descending Jacksonville Center
01:00PM 31.1142 -85.1953 266° West 240 276 7,500 -1,740 Level Jacksonville Center
01:01PM 31.1592 -85.2547 312° West 247 284 5,600 -2,220 Descending Jacksonville Center
01:01PM 31.1611 -85.2619 287° West 248 285 5,300 -1,680 Descending Jacksonville Center
01:02PM 31.2017 -85.3164 311° West 235 270 3,900 -1,620 Descending Jacksonville Center
01:02PM 31.2039 -85.3214 297° West 248 285 3,700 -1,140 Descending Jacksonville Center
01:03PM 31.2447 -85.3639 318° Northwest 182 209 2,800 -1,080 Descending Jacksonville Center
01:04PM 31.2733 -85.3986 314° West 139 160 1,700 -1,080 Descending Jacksonville Center
01:05PM 31.2978 -85.4261 316° Northwest 130 150 800 -1,020 Descending Jacksonville Center
01:07PM 31.3167 -85.4333 319° Northwest  Level FlightAware Approximate
01:14PM 31.3210 -85.4495 319° Northwest  Level Estimated
01:15PM 31.3210 -85.4495 108° East  Level Estimated
01:16PM 31.3210 -85.4495 319° Northwest  Level Estimated
01:17PM 31.3210 -85.4495 108° East  Level Estimated